Time;durP1;ratioP1;P1;durP2;ratioP2;P2;SDS_P1;SDS_P2;PMS_P1;PMS_P2;Temp;Humidity;BMP_temperature;BMP_pressure;BME280_temperature;BME280_humidity;BME280_pressure;Samples;Min_cycle;Max_cycle;Signal;HPM_P1;HPM_P2
2022/10/17 00:00:30;;;;;;;;;;;;;;;14.50;56.78;101154.22;4311170;33;19981;-83
2022/10/17 00:02:57;;;;;;;;;;;;;;;14.15;58.13;101151.72;4311985;33;19980;-83
2022/10/17 00:05:24;;;;;;;;;;;;;;;14.29;57.49;101159.84;4318333;33;20099;-83
2022/10/17 00:07:51;;;;;;;;;;;;;;;14.24;57.85;101156.28;4312807;33;20330;-82
2022/10/17 00:10:18;;;;;;;;;;;;;;;14.35;57.57;101155.66;4319377;33;19980;-83
2022/10/17 00:12:45;;;;;;;;;;;;;;;14.41;57.18;101155.78;4325441;33;20006;-83
2022/10/17 00:15:14;;;;;;;;;;;;;;;14.17;57.90;101152.66;4310321;33;20038;-82
2022/10/17 00:17:41;;;;;;;;;;;;;;;14.45;56.89;101151.50;4326031;33;20431;-83
2022/10/17 00:20:08;;;;;;;;;;;;;;;14.40;56.97;101154.03;4311388;33;19995;-82
2022/10/17 00:22:35;;;;;;;;;;;;;;;14.33;57.21;101157.34;4317096;33;20032;-82
2022/10/17 00:25:07;;;;;;;;;;;;;;;14.50;56.63;101156.84;4317662;33;20006;-83
2022/10/17 00:27:34;;;;;;;;;;;;;;;14.43;56.48;101154.09;4321821;33;20014;-82
2022/10/17 00:30:01;;;;;;;;;;;;;;;13.90;58.16;101166.78;4317628;33;20028;-82
2022/10/17 00:32:28;;;;;;;;;;;;;;;13.96;58.28;101155.63;4297884;33;20251;-83
2022/10/17 00:34:56;;;;;;;;;;;;;;;13.86;58.27;101159.75;4311453;33;20006;-83
2022/10/17 00:37:23;;;;;;;;;;;;;;;13.72;58.68;101163.75;4304392;33;20027;-83
2022/10/17 00:39:50;;;;;;;;;;;;;;;13.86;58.05;101169.28;4310943;33;19991;-83
2022/10/17 00:42:17;;;;;;;;;;;;;;;13.79;58.28;101167.38;4320720;33;20274;-82
2022/10/17 00:44:46;;;;;;;;;;;;;;;14.13;56.84;101164.69;4314403;33;20036;-83
2022/10/17 00:47:14;;;;;;;;;;;;;;;13.87;57.82;101166.69;4312539;33;20696;-82
2022/10/17 00:49:41;;;;;;;;;;;;;;;14.02;57.18;101163.59;4309409;33;19988;-82
2022/10/17 00:52:08;;;;;;;;;;;;;;;13.90;57.55;101166.78;4312183;33;19988;-83
2022/10/17 00:54:36;;;;;;;;;;;;;;;14.03;57.28;101159.25;4312112;33;19988;-83
2022/10/17 00:57:03;;;;;;;;;;;;;;;13.70;58.28;101162.81;4308903;33;19995;-82
2022/10/17 00:59:31;;;;;;;;;;;;;;;13.98;57.42;101160.88;4320826;33;20416;-82
2022/10/17 01:02:01;;;;;;;;;;;;;;;13.56;58.58;101156.38;4312227;33;19988;-82
2022/10/17 01:04:28;;;;;;;;;;;;;;;14.02;56.93;101152.31;4325667;33;20003;-83
2022/10/17 01:06:55;;;;;;;;;;;;;;;13.87;57.57;101151.06;4323833;33;20008;-83
2022/10/17 01:09:23;;;;;;;;;;;;;;;13.93;57.09;101151.22;4325242;33;19986;-82
2022/10/17 01:11:59;;;;;;;;;;;;;;;13.66;58.16;101155.78;4324379;33;20028;-82
2022/10/17 01:14:45;;;;;;;;;;;;;;;14.04;56.60;101158.41;4310647;33;19990;-82
2022/10/17 01:17:29;;;;;;;;;;;;;;;13.58;58.41;101158.19;4317246;33;20006;-83
2022/10/17 01:19:59;;;;;;;;;;;;;;;13.80;57.47;101154.38;4299187;33;20334;-83
2022/10/17 01:22:27;;;;;;;;;;;;;;;13.68;57.65;101159.28;4299655;33;19992;-82
2022/10/17 01:25:05;;;;;;;;;;;;;;;13.90;56.85;101164.16;4320467;33;20022;-82
2022/10/17 01:27:42;;;;;;;;;;;;;;;13.62;57.79;101169.53;4313577;33;19984;-82
2022/10/17 01:30:32;;;;;;;;;;;;;;;13.48;58.44;101162.28;4327719;33;19995;-83
2022/10/17 01:33:12;;;;;;;;;;;;;;;13.79;57.24;101157.84;4312830;33;20062;-83
2022/10/17 01:35:47;;;;;;;;;;;;;;;13.80;57.11;101154.38;4311590;33;19980;-83
2022/10/17 01:38:17;;;;;;;;;;;;;;;13.52;57.88;101152.81;4305588;33;20032;-82
2022/10/17 01:41:05;;;;;;;;;;;;;;;13.64;57.44;101150.53;4308860;33;19980;-83
2022/10/17 01:43:32;;;;;;;;;;;;;;;13.71;57.21;101154.16;4312504;33;20004;-83
2022/10/17 01:46:01;;;;;;;;;;;;;;;13.57;57.72;101152.97;4312481;33;19984;-82
2022/10/17 01:48:33;;;;;;;;;;;;;;;13.37;58.36;101150.75;4312917;33;20059;-82
2022/10/17 01:51:12;;;;;;;;;;;;;;;13.51;57.87;101153.69;4313594;33;19984;-82
2022/10/17 01:53:41;;;;;;;;;;;;;;;13.72;56.75;101155.94;4310481;33;19996;-82
2022/10/17 01:56:08;;;;;;;;;;;;;;;13.41;57.91;101152.56;4313343;33;19972;-82
2022/10/17 01:58:51;;;;;;;;;;;;;;;13.34;58.22;101157.59;4310777;33;19992;-82
2022/10/17 02:01:19;;;;;;;;;;;;;;;13.33;58.36;101161.88;4313768;33;19972;-83
2022/10/17 02:03:45;;;;;;;;;;;;;;;13.25;58.32;101163.41;4321817;33;20314;-84
2022/10/17 02:06:12;;;;;;;;;;;;;;;13.30;58.13;101161.78;4312685;33;20014;-82
2022/10/17 02:08:46;;;;;;;;;;;;;;;13.24;58.28;101166.78;4312192;33;20595;-82
2022/10/17 02:11:17;;;;;;;;;;;;;;;13.27;58.13;101166.91;4312493;33;19992;-82
2022/10/17 02:14:03;;;;;;;;;;;;;;;13.40;57.60;101166.41;4301121;33;20344;-83
2022/10/17 02:16:49;;;;;;;;;;;;;;;13.48;57.23;101162.28;4320368;33;20000;-83
2022/10/17 02:19:35;;;;;;;;;;;;;;;13.40;57.53;101161.22;4312272;33;20044;-82
2022/10/17 02:22:05;;;;;;;;;;;;;;;13.48;57.11;101167.47;4317209;33;19980;-83
2022/10/17 02:24:51;;;;;;;;;;;;;;;13.31;57.80;101153.19;4318411;33;19996;-83
2022/10/17 02:27:31;;;;;;;;;;;;;;;13.18;57.96;101166.66;4327038;33;20006;-83
2022/10/17 02:30:01;;;;;;;;;;;;;;;13.53;56.79;101169.31;4311600;33;20039;-83
2022/10/17 02:32:34;;;;;;;;;;;;;;;13.33;57.66;101161.88;4303408;33;20008;-83
2022/10/17 02:35:01;;;;;;;;;;;;;;;13.38;57.17;101165.50;4296178;33;20012;-83
2022/10/17 02:37:28;;;;;;;;;;;;;;;13.51;56.96;101160.59;4296344;33;20044;-82
2022/10/17 02:39:57;;;;;;;;;;;;;;;13.43;57.22;101168.19;4306092;33;20011;-82
2022/10/17 02:42:24;;;;;;;;;;;;;;;13.54;56.78;101176.28;4317130;33;19976;-82
2022/10/17 02:44:50;;;;;;;;;;;;;;;13.46;57.08;101173.47;4312207;33;19988;-83
2022/10/17 02:47:22;;;;;;;;;;;;;;;13.12;58.38;101176.91;4298790;33;19976;-83
2022/10/17 02:49:50;;;;;;;;;;;;;;;13.33;57.17;101182.69;4307304;33;20724;-83
2022/10/17 02:52:28;;;;;;;;;;;;;;;13.24;57.45;101187.59;4314951;33;20021;-82
2022/10/17 02:54:57;;;;;;;;;;;;;;;13.52;56.56;101185.78;4325817;33;20105;-83
2022/10/17 02:57:29;;;;;;;;;;;;;;;13.31;57.18;101183.50;4313110;33;20011;-83
2022/10/17 02:59:57;;;;;;;;;;;;;;;13.26;57.22;101185.97;4313329;33;19984;-83
2022/10/17 03:02:24;;;;;;;;;;;;;;;13.02;57.70;101187.03;4326129;33;19992;-83
2022/10/17 03:04:51;;;;;;;;;;;;;;;13.39;56.63;101188.03;4326810;33;20342;-83
2022/10/17 03:07:18;;;;;;;;;;;;;;;13.00;58.05;101187.81;4326287;33;19999;-82
2022/10/17 03:09:44;;;;;;;;;;;;;;;13.08;57.70;101195.81;4326609;33;20049;-83
2022/10/17 03:12:11;;;;;;;;;;;;;;;13.14;57.46;101193.41;4326734;33;19983;-83
2022/10/17 03:14:38;;;;;;;;;;;;;;;12.99;57.85;101189.56;4326602;33;19992;-83
2022/10/17 03:17:05;;;;;;;;;;;;;;;13.32;56.85;101190.47;4326463;33;20017;-83
2022/10/17 03:19:32;;;;;;;;;;;;;;;13.23;57.06;101191.06;4300551;33;19976;-82
2022/10/17 03:21:59;;;;;;;;;;;;;;;13.07;57.43;101194.06;4325074;33;19988;-83
2022/10/17 03:24:26;;;;;;;;;;;;;;;12.92;57.95;101195.41;4308337;33;20523;-83
2022/10/17 03:26:53;;;;;;;;;;;;;;;12.80;58.37;101200.25;4314505;33;19988;-83
2022/10/17 03:29:20;;;;;;;;;;;;;;;12.88;58.02;101214.34;4311643;33;20733;-83
2022/10/17 03:31:47;;;;;;;;;;;;;;;13.12;57.00;101202.91;4320191;33;19976;-83
2022/10/17 03:34:16;;;;;;;;;;;;;;;13.09;56.96;101213.22;4310577;33;19996;-83
2022/10/17 03:36:44;;;;;;;;;;;;;;;13.11;56.59;101211.50;4290363;33;19980;-84
2022/10/17 03:39:11;;;;;;;;;;;;;;;13.15;56.56;101215.97;4297547;33;19997;-84
2022/10/17 03:41:37;;;;;;;;;;;;;;;12.87;57.43;101217.78;4296978;33;19980;-83
2022/10/17 03:44:04;;;;;;;;;;;;;;;12.60;58.51;101219.56;4297293;33;19997;-83
2022/10/17 03:46:32;;;;;;;;;;;;;;;13.00;57.21;101226.81;4304985;33;20763;-84
2022/10/17 03:48:59;;;;;;;;;;;;;;;12.75;58.27;101233.00;4299243;33;19980;-83
2022/10/17 03:51:26;;;;;;;;;;;;;;;13.16;56.61;101230.72;4303685;33;20310;-83
2022/10/17 03:53:53;;;;;;;;;;;;;;;12.76;57.62;101235.69;4297005;33;19993;-84
2022/10/17 03:56:21;;;;;;;;;;;;;;;12.93;57.21;101240.47;4297432;33;20499;-83
2022/10/17 03:58:49;;;;;;;;;;;;;;;12.91;57.26;101235.22;4305684;33;20043;-82
2022/10/17 04:01:17;;;;;;;;;;;;;;;12.97;57.08;101230.19;4283575;33;20028;-83
2022/10/17 04:03:51;;;;;;;;;;;;;;;12.90;57.35;101233.47;4297243;33;20791;-82
2022/10/17 04:06:18;;;;;;;;;;;;;;;12.66;58.00;101232.75;4288196;33;20265;-82
2022/10/17 04:08:46;;;;;;;;;;;;;;;12.65;58.00;101231.88;4304817;33;20075;-83
2022/10/17 04:11:14;;;;;;;;;;;;;;;12.63;58.02;101237.84;4296936;33;20444;-83
2022/10/17 04:13:41;;;;;;;;;;;;;;;12.76;57.44;101239.97;4284246;33;20003;-84
2022/10/17 04:16:10;;;;;;;;;;;;;;;12.45;58.24;101239.06;4298480;33;19984;-83
2022/10/17 04:18:38;;;;;;;;;;;;;;;12.47;58.37;101237.37;4298087;33;20047;-82
2022/10/17 04:21:05;;;;;;;;;;;;;;;12.61;58.07;101234.34;4311972;33;20318;-83
2022/10/17 04:23:32;;;;;;;;;;;;;;;12.60;57.80;101242.94;4306734;33;20015;-83
2022/10/17 04:26:06;;;;;;;;;;;;;;;12.56;57.88;101253.25;4155005;33;10001045;-81
2022/10/17 04:28:33;;;;;;;;;;;;;;;12.74;57.12;101252.03;4001035;33;5001486;-81
2022/10/17 04:31:01;;;;;;;;;;;;;;;12.51;57.66;101254.84;4298216;33;20532;-81
2022/10/17 04:33:30;;;;;;;;;;;;;;;12.67;57.31;101260.50;4311662;33;20011;-80
2022/10/17 04:36:00;;;;;;;;;;;;;;;12.69;57.31;101261.41;4311092;33;19984;-83
2022/10/17 04:38:28;;;;;;;;;;;;;;;12.77;57.10;101263.41;4311384;33;19988;-82
2022/10/17 04:41:01;;;;;;;;;;;;;;;12.68;57.54;101257.06;4289954;33;20035;-81
2022/10/17 04:43:32;;;;;;;;;;;;;;;12.81;56.83;101259.19;4311531;33;20036;-82
2022/10/17 04:46:00;;;;;;;;;;;;;;;12.45;58.53;101258.97;4297689;33;19984;-82
2022/10/17 04:48:27;;;;;;;;;;;;;;;12.69;57.88;101267.47;4294677;33;19989;-81
2022/10/17 04:51:01;;;;;;;;;;;;;;;12.73;57.63;101265.84;4296644;33;20036;-81
2022/10/17 04:53:32;;;;;;;;;;;;;;;12.39;58.40;101266.56;4294583;33;19993;-82
2022/10/17 04:55:59;;;;;;;;;;;;;;;12.31;58.47;101261.09;4294605;33;20514;-80
2022/10/17 04:58:29;;;;;;;;;;;;;;;12.50;57.80;101271.22;4294949;33;20016;-81
2022/10/17 05:00:56;;;;;;;;;;;;;;;12.38;58.01;101269.97;4296556;33;19981;-81
2022/10/17 05:03:26;;;;;;;;;;;;;;;12.40;57.86;101271.78;4298723;33;20004;-80
2022/10/17 05:05:53;;;;;;;;;;;;;;;12.59;57.31;101282.75;4303200;33;20039;-80
2022/10/17 05:08:21;;;;;;;;;;;;;;;12.47;58.18;101280.63;4283247;33;19992;-79
2022/10/17 05:10:49;;;;;;;;;;;;;;;12.51;57.77;101278.22;4296876;33;19973;-79
2022/10/17 05:13:15;;;;;;;;;;;;;;;12.70;57.19;101281.34;4303793;33;19996;-79
2022/10/17 05:15:45;;;;;;;;;;;;;;;12.38;58.26;101273.47;4296011;33;19996;-79
2022/10/17 05:18:12;;;;;;;;;;;;;;;12.41;58.01;101283.94;4296181;33;20003;-80
2022/10/17 05:20:40;;;;;;;;;;;;;;;12.65;57.36;101285.53;4295930;33;19985;-80
2022/10/17 05:23:06;;;;;;;;;;;;;;;12.74;57.39;101293.63;4296064;33;20012;-81
2022/10/17 05:25:33;;;;;;;;;;;;;;;12.71;57.87;101294.41;4303842;33;19996;-80
2022/10/17 05:28:00;;;;;;;;;;;;;;;12.64;58.04;101300.25;4307579;33;19989;-82
2022/10/17 05:30:29;;;;;;;;;;;;;;;12.49;58.58;101298.03;4303876;33;20415;-81
2022/10/17 05:33:03;;;;;;;;;;;;;;;12.70;57.79;101307.31;4297936;33;20015;-82
2022/10/17 05:35:30;;;;;;;;;;;;;;;12.63;58.29;101311.44;4295733;33;20370;-81
2022/10/17 05:37:58;;;;;;;;;;;;;;;12.51;58.57;101313.69;4304236;33;20027;-81
2022/10/17 05:40:25;;;;;;;;;;;;;;;12.40;58.95;101315.94;4310566;33;20023;-80
2022/10/17 05:42:52;;;;;;;;;;;;;;;12.70;58.02;101317.72;4297397;33;19984;-79
2022/10/17 05:45:20;;;;;;;;;;;;;;;12.55;58.76;101319.03;4296301;33;20010;-80
2022/10/17 05:47:47;;;;;;;;;;;;;;;12.50;59.40;101319.69;4308058;33;19988;-80
2022/10/17 05:50:15;;;;;;;;;;;;;;;12.69;58.83;101326.38;4309062;33;19976;-79
2022/10/17 05:52:42;;;;;;;;;;;;;;;12.42;60.13;101321.19;4308261;33;19996;-80
2022/10/17 05:55:13;;;;;;;;;;;;;;;12.70;59.38;101329.03;4304478;33;20011;-80
2022/10/17 05:57:40;;;;;;;;;;;;;;;13.03;58.51;101334.34;4294895;33;20006;-79
2022/10/17 06:00:09;;;;;;;;;;;;;;;12.97;59.16;101344.56;4295031;33;19980;-81
2022/10/17 06:02:39;;;;;;;;;;;;;;;12.74;60.11;101350.78;4302357;33;20024;-80
2022/10/17 06:05:07;;;;;;;;;;;;;;;13.06;58.96;101348.28;4310686;33;20631;-81
2022/10/17 06:07:34;;;;;;;;;;;;;;;12.95;59.77;101351.44;4298664;33;20014;-80
2022/10/17 06:10:02;;;;;;;;;;;;;;;13.15;59.56;101358.97;4305676;33;20071;-80
2022/10/17 06:12:29;;;;;;;;;;;;;;;13.20;59.45;101357.38;4294687;33;20008;-80
2022/10/17 06:14:57;;;;;;;;;;;;;;;13.12;60.24;101361.47;4308222;33;19996;-80
2022/10/17 06:17:25;;;;;;;;;;;;;;;13.11;60.85;101362.28;4297555;33;19992;-81
2022/10/17 06:19:56;;;;;;;;;;;;;;;13.12;61.16;101359.75;4284951;33;19984;-80
2022/10/17 06:25:06;;;;;;;;;;;;;;;13.36;60.83;101370.03;4298184;33;20036;-80
2022/10/17 06:27:33;;;;;;;;;;;;;;;13.48;60.88;101365.19;4309569;33;20550;-80
2022/10/17 06:30:00;;;;;;;;;;;;;;;13.63;60.45;101369.06;4308127;33;20028;-80
2022/10/17 06:32:27;;;;;;;;;;;;;;;13.73;60.24;101376.28;4311157;33;20748;-82
2022/10/17 06:34:54;;;;;;;;;;;;;;;13.69;60.47;101374.44;4296553;33;20008;-81
2022/10/17 06:37:22;;;;;;;;;;;;;;;13.82;60.10;101376.56;4303454;33;20064;-81
2022/10/17 06:39:49;;;;;;;;;;;;;;;14.04;59.83;101372.81;4302366;33;20031;-82
2022/10/17 06:42:17;;;;;;;;;;;;;;;13.98;60.70;101393.47;4298415;33;20002;-81
2022/10/17 06:44:44;;;;;;;;;;;;;;;14.22;60.16;101382.81;4311409;33;19992;-81
2022/10/17 06:47:13;;;;;;;;;;;;;;;14.33;60.25;101397.00;4299444;33;20007;-81
2022/10/17 06:49:45;;;;;;;;;;;;;;;14.50;59.94;101391.34;4310820;33;20342;-84
2022/10/17 06:52:12;;;;;;;;;;;;;;;14.71;60.10;101394.50;4295949;33;20744;-83
2022/10/17 06:54:39;;;;;;;;;;;;;;;15.07;59.90;101393.59;4311021;33;20015;-83
2022/10/17 06:57:06;;;;;;;;;;;;;;;15.35;59.17;101395.97;4307492;33;20015;-80
2022/10/17 06:59:33;;;;;;;;;;;;;;;15.69;59.05;101391.47;4291444;33;19980;-82
2022/10/17 07:02:05;;;;;;;;;;;;;;;16.08;58.25;101400.03;4293957;33;20023;-82
2022/10/17 07:04:32;;;;;;;;;;;;;;;16.44;57.40;101394.62;4306596;33;20019;-81
2022/10/17 07:07:01;;;;;;;;;;;;;;;16.81;56.49;101401.34;4298773;33;20463;-80
2022/10/17 07:09:30;;;;;;;;;;;;;;;17.07;55.28;101404.38;4303684;33;19992;-80
2022/10/17 07:11:57;;;;;;;;;;;;;;;17.25;54.93;101402.84;4298939;33;20011;-81
2022/10/17 07:14:30;;;;;;;;;;;;;;;17.51;54.05;101401.44;4282621;33;20004;-78
2022/10/17 07:16:58;;;;;;;;;;;;;;;17.76;53.38;101401.75;4305221;33;20056;-79
2022/10/17 07:19:26;;;;;;;;;;;;;;;18.00;52.61;101412.56;4288995;33;20366;-80
2022/10/17 07:21:53;;;;;;;;;;;;;;;18.26;52.05;101404.97;4282514;33;20036;-81
2022/10/17 07:24:20;;;;;;;;;;;;;;;18.44;51.01;101414.75;4309717;33;20257;-81
2022/10/17 07:26:47;;;;;;;;;;;;;;;18.67;50.39;101411.44;4285952;33;20036;-82
2022/10/17 07:29:14;;;;;;;;;;;;;;;18.90;49.78;101415.16;4285144;33;20270;-81
2022/10/17 07:31:41;;;;;;;;;;;;;;;19.08;49.39;101410.88;4287956;33;20106;-81
2022/10/17 07:34:08;;;;;;;;;;;;;;;19.29;48.77;101413.63;4305451;33;20457;-80
2022/10/17 07:36:34;;;;;;;;;;;;;;;19.37;47.73;101411.94;4282524;33;19989;-81
2022/10/17 07:39:02;;;;;;;;;;;;;;;19.51;47.94;101407.63;4285038;33;19977;-80
2022/10/17 07:41:29;;;;;;;;;;;;;;;19.77;48.63;101417.38;4313046;33;20044;-81
2022/10/17 07:43:56;;;;;;;;;;;;;;;19.89;47.25;101401.66;4284944;33;20001;-82
2022/10/17 07:46:23;;;;;;;;;;;;;;;20.09;46.67;101404.34;4287017;33;20016;-79
2022/10/17 07:48:50;;;;;;;;;;;;;;;20.25;46.47;101414.88;3708057;33;10009210;-82
2022/10/17 07:51:19;;;;;;;;;;;;;;;20.40;46.48;101415.78;4004041;33;10004154;-82
2022/10/17 07:53:45;;;;;;;;;;;;;;;20.49;44.94;101411.41;4282411;33;20018;-82
2022/10/17 07:56:14;;;;;;;;;;;;;;;20.59;44.46;101415.84;4288168;33;20012;-78
2022/10/17 07:58:41;;;;;;;;;;;;;;;20.61;44.48;101414.06;4298614;33;19996;-81
2022/10/17 08:01:09;;;;;;;;;;;;;;;20.39;44.78;101411.41;4311196;33;19988;-79
2022/10/17 08:03:42;;;;;;;;;;;;;;;20.93;44.49;101411.44;4299076;33;19976;-81
2022/10/17 08:06:09;;;;;;;;;;;;;;;20.96;44.63;101416.66;4298212;33;20015;-80
2022/10/17 08:08:36;;;;;;;;;;;;;;;21.13;44.28;101421.94;4311130;33;20019;-78
2022/10/17 08:11:04;;;;;;;;;;;;;;;21.34;45.08;101423.59;4311067;33;20002;-82
2022/10/17 08:13:30;;;;;;;;;;;;;;;21.26;44.45;101426.28;4306062;33;19983;-80
2022/10/17 08:16:01;;;;;;;;;;;;;;;21.19;43.32;101429.81;4285625;33;20001;-81
2022/10/17 08:18:28;;;;;;;;;;;;;;;21.50;42.29;101435.00;4297994;33;20338;-80
2022/10/17 08:20:58;;;;;;;;;;;;;;;21.34;42.46;101428.88;4311127;33;20047;-80
2022/10/17 08:23:26;;;;;;;;;;;;;;;21.44;42.47;101438.56;4296310;33;19988;-81
2022/10/17 08:25:53;;;;;;;;;;;;;;;21.48;42.14;101436.78;4302969;33;19988;-80
2022/10/17 08:28:20;;;;;;;;;;;;;;;21.42;42.23;101432.41;4308413;33;19988;-81
2022/10/17 08:30:50;;;;;;;;;;;;;;;21.41;43.14;101435.03;4325660;33;20076;-80
2022/10/17 08:33:17;;;;;;;;;;;;;;;21.87;41.36;101435.75;4312160;33;19976;-81
2022/10/17 08:35:43;;;;;;;;;;;;;;;21.97;41.74;101439.22;4325398;33;20277;-82
2022/10/17 08:38:10;;;;;;;;;;;;;;;21.79;41.64;101438.44;4311840;33;19980;-81
2022/10/17 08:40:41;;;;;;;;;;;;;;;22.03;41.64;101436.53;4319595;33;20055;-78
2022/10/17 08:43:25;;;;;;;;;;;;;;;22.07;39.82;101433.00;4306227;33;20020;-80
2022/10/17 08:45:54;;;;;;;;;;;;;;;21.69;40.58;101428.78;4318359;33;19984;-80
2022/10/17 08:48:22;;;;;;;;;;;;;;;21.92;40.71;101433.06;4321215;33;19984;-80
2022/10/17 08:50:50;;;;;;;;;;;;;;;22.19;40.40;101432.97;4319175;33;20011;-81
2022/10/17 08:53:30;;;;;;;;;;;;;;;21.81;40.52;101431.38;4313276;33;19973;-81
2022/10/17 08:55:58;;;;;;;;;;;;;;;22.10;39.60;101437.37;4303938;33;20339;-79
2022/10/17 08:58:29;;;;;;;;;;;;;;;22.26;39.38;101437.31;4308401;33;20349;-81
2022/10/17 09:00:56;;;;;;;;;;;;;;;22.39;39.87;101434.59;4312292;33;20012;-82
2022/10/17 09:03:26;;;;;;;;;;;;;;;22.54;39.61;101439.75;4310490;33;19980;-77
2022/10/17 09:05:56;;;;;;;;;;;;;;;22.62;38.52;101432.66;4310586;33;20008;-81
2022/10/17 09:08:28;;;;;;;;;;;;;;;22.25;40.03;101430.28;4310405;33;20043;-76
2022/10/17 09:10:57;;;;;;;;;;;;;;;22.17;40.40;101444.41;4321204;33;20023;-78
2022/10/17 09:13:26;;;;;;;;;;;;;;;22.31;41.36;101431.13;4320730;33;19984;-80
2022/10/17 09:15:53;;;;;;;;;;;;;;;22.43;39.21;101437.22;4322255;33;20327;-84
2022/10/17 09:18:27;;;;;;;;;;;;;;;22.26;38.97;101432.03;4322296;33;19988;-83
2022/10/17 09:20:54;;;;;;;;;;;;;;;22.38;38.71;101432.84;4321403;33;19984;-76
2022/10/17 09:23:22;;;;;;;;;;;;;;;22.73;38.29;101430.78;4313503;33;19989;-77
2022/10/17 09:25:51;;;;;;;;;;;;;;;22.45;39.23;101430.13;4313588;33;20033;-85
2022/10/17 09:28:31;;;;;;;;;;;;;;;22.61;38.16;101436.16;4306183;33;20036;-80
2022/10/17 09:31:00;;;;;;;;;;;;;;;22.65;39.60;101431.75;4312413;33;20819;-83
2022/10/17 09:33:29;;;;;;;;;;;;;;;22.47;40.57;101432.78;4321616;33;19984;-80
2022/10/17 09:36:10;;;;;;;;;;;;;;;22.78;39.09;101429.87;4315974;33;20239;-83
2022/10/17 09:38:38;;;;;;;;;;;;;;;22.81;39.01;101433.34;4320828;33;19984;-83
2022/10/17 09:41:05;;;;;;;;;;;;;;;22.46;39.65;101436.28;4317658;33;20032;-87
2022/10/17 09:43:55;;;;;;;;;;;;;;;22.62;40.67;101437.94;4308422;33;20327;-82
2022/10/17 09:46:28;;;;;;;;;;;;;;;22.81;38.75;101438.62;4311757;33;20032;-84
2022/10/17 09:49:02;;;;;;;;;;;;;;;22.88;38.63;101439.47;4310534;33;19992;-82
2022/10/17 09:51:30;;;;;;;;;;;;;;;23.22;36.65;101434.75;4321979;32;19984;-87
2022/10/17 09:54:00;;;;;;;;;;;;;;;23.03;38.08;101431.41;4317465;33;19994;-83
2022/10/17 09:56:27;;;;;;;;;;;;;;;23.30;36.38;101432.06;4308293;33;19988;-81
2022/10/17 09:58:57;;;;;;;;;;;;;;;23.52;37.36;101427.41;4308466;33;20075;-80
2022/10/17 10:01:26;;;;;;;;;;;;;;;23.31;36.23;101428.50;4303086;33;20002;-82
2022/10/17 10:04:13;;;;;;;;;;;;;;;23.70;35.12;101431.59;4298664;33;20322;-82
2022/10/17 10:06:41;;;;;;;;;;;;;;;23.63;35.88;101429.00;4297790;33;20033;-83
2022/10/17 10:09:21;;;;;;;;;;;;;;;23.51;34.82;101431.78;4319584;33;19992;-82
2022/10/17 10:11:48;;;;;;;;;;;;;;;23.59;34.71;101429.06;4308820;33;20666;-81
2022/10/17 10:14:23;;;;;;;;;;;;;;;23.19;34.74;101430.37;4310790;33;19988;-82
2022/10/17 10:16:52;;;;;;;;;;;;;;;23.22;34.92;101424.19;4308324;33;20258;-78
2022/10/17 10:19:32;;;;;;;;;;;;;;;23.64;35.08;101422.84;4310520;33;20487;-81
2022/10/17 10:22:00;;;;;;;;;;;;;;;23.53;33.94;101414.16;4310175;33;20011;-81
2022/10/17 10:24:28;;;;;;;;;;;;;;;23.83;34.09;101422.59;4306928;33;20006;-77
2022/10/17 10:26:57;;;;;;;;;;;;;;;23.94;33.66;101420.69;4319785;33;20006;-80
2022/10/17 10:29:31;;;;;;;;;;;;;;;23.77;35.36;101422.69;4319955;33;20377;-81
2022/10/17 10:32:15;;;;;;;;;;;;;;;23.82;34.22;101418.22;4319764;33;19996;-78
2022/10/17 10:34:48;;;;;;;;;;;;;;;23.88;32.57;101420.78;4318166;33;19977;-79
2022/10/17 10:37:16;;;;;;;;;;;;;;;23.83;34.32;101417.31;4319568;33;19996;-81
2022/10/17 10:39:53;;;;;;;;;;;;;;;23.70;34.29;101419.25;4310601;33;20006;-83
2022/10/17 10:42:23;;;;;;;;;;;;;;;23.91;34.56;101415.44;4308275;33;20067;-83
2022/10/17 10:44:50;;;;;;;;;;;;;;;23.44;33.57;101411.59;4320540;33;19988;-84
2022/10/17 10:47:19;;;;;;;;;;;;;;;23.77;33.98;101413.00;4318664;33;20378;-80
2022/10/17 10:49:46;;;;;;;;;;;;;;;23.83;34.02;101417.31;4309466;33;19992;-79
2022/10/17 10:52:17;;;;;;;;;;;;;;;23.76;33.66;101410.37;4321138;33;20067;-80
2022/10/17 10:54:49;;;;;;;;;;;;;;;24.07;33.34;101414.34;4321394;33;20040;-82
2022/10/17 10:57:18;;;;;;;;;;;;;;;23.59;32.89;101408.78;4313864;33;19980;-83
2022/10/17 11:00:04;;;;;;;;;;;;;;;23.91;34.56;101410.16;4318697;33;20007;-83
2022/10/17 11:02:31;;;;;;;;;;;;;;;23.87;34.96;101408.47;4308451;33;19984;-83
2022/10/17 11:05:00;;;;;;;;;;;;;;;23.96;34.22;101408.31;4309936;33;19984;-85
2022/10/17 11:07:34;;;;;;;;;;;;;;;24.35;32.69;101406.00;4319219;33;20060;-76
2022/10/17 11:10:13;;;;;;;;;;;;;;;24.06;35.38;101399.37;4321287;33;19995;-77
2022/10/17 11:12:50;;;;;;;;;;;;;;;24.23;33.67;101398.22;4311809;33;19988;-82
2022/10/17 11:15:36;;;;;;;;;;;;;;;24.29;34.97;101395.50;4319349;33;19984;-80
2022/10/17 11:18:04;;;;;;;;;;;;;;;24.27;35.56;101392.84;4321810;33;19992;-79
2022/10/17 11:20:51;;;;;;;;;;;;;;;24.34;34.76;101385.69;4322009;33;19992;-83
2022/10/17 11:23:20;;;;;;;;;;;;;;;24.36;34.10;101394.50;4320643;33;20048;-83
2022/10/17 11:25:48;;;;;;;;;;;;;;;24.16;33.51;101399.22;4304285;33;19976;-83
2022/10/17 11:28:18;;;;;;;;;;;;;;;24.49;33.15;101385.47;4299515;33;19988;-84
2022/10/17 11:30:50;;;;;;;;;;;;;;;24.67;32.73;101386.94;4307671;33;19992;-85
2022/10/17 11:33:19;;;;;;;;;;;;;;;24.58;34.08;101387.97;4297354;33;19983;-84
2022/10/17 11:35:47;;;;;;;;;;;;;;;24.73;33.39;101396.53;4293567;33;19988;-84
2022/10/17 11:38:13;;;;;;;;;;;;;;;24.59;33.13;101381.75;4297451;33;20031;-82
2022/10/17 11:40:42;;;;;;;;;;;;;;;24.49;32.79;101380.19;4302781;33;19992;-83
2022/10/17 11:43:20;;;;;;;;;;;;;;;24.35;32.50;101379.53;4283274;33;20007;-83
2022/10/17 11:45:47;;;;;;;;;;;;;;;24.41;32.90;101378.53;4283781;33;19991;-85
2022/10/17 11:48:43;;;;;;;;;;;;;;;24.63;33.11;101368.47;4283270;33;20131;-85
2022/10/17 11:51:11;;;;;;;;;;;;;;;24.75;33.35;101368.25;4293251;33;19995;-80
2022/10/17 11:54:12;;;;;;;;;;;;;;;24.83;33.13;101372.53;4295541;33;19991;-80
2022/10/17 11:56:45;;;;;;;;;;;;;;;24.59;33.56;101373.81;4292486;33;19992;-80
2022/10/17 11:59:15;;;;;;;;;;;;;;;24.27;33.11;101376.09;4306273;33;20015;-79
2022/10/17 12:01:51;;;;;;;;;;;;;;;24.51;32.82;101370.44;4304241;33;20043;-80
2022/10/17 12:04:18;;;;;;;;;;;;;;;24.39;32.12;101365.31;4297451;33;19992;-79
2022/10/17 12:06:51;;;;;;;;;;;;;;;24.30;34.24;101362.84;4304805;33;20283;-81
2022/10/17 12:09:19;;;;;;;;;;;;;;;24.44;32.60;101368.81;4309889;33;19988;-82
2022/10/17 12:11:49;;;;;;;;;;;;;;;24.58;32.43;101364.16;4308460;33;20476;-81
2022/10/17 12:14:35;;;;;;;;;;;;;;;24.58;32.97;101361.50;4309098;33;19992;-80
2022/10/17 12:17:02;;;;;;;;;;;;;;;24.84;32.54;101357.50;4310388;33;19996;-83
2022/10/17 12:19:33;;;;;;;;;;;;;;;24.30;33.01;101357.53;4297162;33;19988;-78
2022/10/17 12:22:03;;;;;;;;;;;;;;;24.76;33.64;101359.41;4310273;33;20365;-87
2022/10/17 12:24:32;;;;;;;;;;;;;;;24.57;34.49;101349.16;4311688;33;19991;-83
2022/10/17 12:27:18;;;;;;;;;;;;;;;24.41;32.35;101347.69;4310593;33;20372;-80
2022/10/17 12:29:47;;;;;;;;;;;;;;;24.42;32.96;101344.12;4310204;33;20804;-81
2022/10/17 12:32:14;;;;;;;;;;;;;;;24.27;33.48;101349.66;4307118;33;19993;-84
2022/10/17 12:34:50;;;;;;;;;;;;;;;24.26;32.34;101337.31;4310018;33;20382;-80
2022/10/17 12:37:37;;;;;;;;;;;;;;;24.01;34.91;101342.13;3715053;32;10006971;-84
2022/10/17 12:40:24;;;;;;;;;;;;;;;24.14;33.36;101336.59;4323851;33;19994;-81
2022/10/17 12:42:51;;;;;;;;;;;;;;;24.17;33.23;101333.03;4323337;33;20030;-81
2022/10/17 12:45:37;;;;;;;;;;;;;;;23.93;34.69;101350.19;4311730;33;19980;-83
2022/10/17 12:48:08;;;;;;;;;;;;;;;24.08;33.57;101344.63;4323079;33;19984;-83
2022/10/17 12:51:08;;;;;;;;;;;;;;;24.27;33.46;101341.72;4324771;33;20015;-80
2022/10/17 12:53:58;;;;;;;;;;;;;;;24.17;32.52;101337.47;4308343;33;20007;-85